Main page
METAR-TAF:

METAR-TAF

Airports :

Varna Airport

Varna, Bulgaria

latitude: 43-12N, longitude: 027-55E, elevation: 41 m

Current weather observation

The report was made 25 minutes ago, at 00:00 UTC
Wind 3 kt from the Northwest, varying between West and North
Temperature 3°C
Humidity 81%
Pressure 1029 hPa
Visibility 10 km or more
Broken clouds at a height of 3800 ft

METAR: LBWN 160000Z 32003KT 280V350 9999 BKN038 03/M00 Q1029 NOSIG

Time: 02:25 (00:25 UTC)

Forecast

The report was made 1 hour and 25 minutes ago, at 23:00 UTC
Forecast valid from 16 at 00 UTC to 16 at 24 UTC
Wind 10 kt from the North/Northwest
Visibility 10 km or more
Scattered clouds at a height of 4000 ft
Temporary
from 16 at 01 UTC to 16 at 06 UTC
Visibility: 4000 m
Broken clouds at a height of 1200 ft
mist
Becoming
from 16 at 16 UTC to 16 at 18 UTC
Wind 4 kt from variable directions

TAF: LBWN 152300Z 1600/1624 33010KT 9999 SCT040 TEMPO 1601/1606 4000 BR BKN012 BECMG 1616/1618 VRB04KT

Weather observations and forecasts of more than 4000 airports (METAR and TAF reports).

The available stations are represented by yellow and red dots on the map.

Hover mouse over dot to see the name of the station.

Then click to see weather observations and forecasts.

To change the map : click on the green buttons with a black cross to zoom in, on the green button with a dash to zoom out, or on the green arrows for adjacent maps.


METAR-TAF: